Roeville, FL

1:56 PM CDT on July 22, 2017 (GMT -0500)
Whiting Field Naval Air Station (South) | | Change Station

Elev 177 ft 30.70 °N, 87.01 °W | Updated 1 hour ago

Scattered Clouds
Scattered Clouds
94 °F
Feels Like 103 °F
N
0
Wind Variable Wind from North

Today
High -- | Low -- °F
--% Chance of Precip.
Yesterday
High -- | Low -- °F
Precip. -- in
Pressure 29.97 in
Visibility 10.0 miles
Clouds Few 5500 ft
Scattered Clouds 11000 ft
Heat Index 103 °F
Dew Point 73 °F
Humidity 51%
Rainfall 0.01 in
Snow Depth Not available.
5:59 AM 7:48 PM
Waning Crescent, 1% visible
METAR KNDZ 221756Z AUTO 00000KT 10SM FEW055 SCT110 34/23 A3001 RMK AO2 SLP148 T03440228 10350 20261 58012 $
Pressure 29.97 in
Visibility 10.0 miles
Clouds Few 5500 ft
Scattered Clouds 11000 ft
Heat Index 103 °F
Dew Point 73 °F
Humidity 51%
Rainfall 0.01 in
Snow Depth Not available.
5:59 AM 7:48 PM
Waning Crescent, 1% visible
METAR KNDZ 221756Z AUTO 00000KT 10SM FEW055 SCT110 34/23 A3001 RMK AO2 SLP148 T03440228 10350 20261 58012 $

Get Severe Weather Alerts

Thanks for signing up!

Be on the lookout for a verification email in your inbox.

You'll start receiving the daily forecast at 6 AM.

×

10-Day Weather Forecast

Almanac

Astronomy

Jul. 22, 2017 Rise Set
Actual Time
Civil Twilight
Nautical Twilight
Astronomical Twilight
Moon
Length of Visible Light
Length of Day
Tomorrow will be .
, % of the Moon is Illuminated

Today's Extremes

State Highs State Lows

Community

WunderPhotos

Category 6

Welcome to Category 6. This is the collective home for Weather Underground's featured writeups by Dr. Jeff Masters (right), Bob Henson (left), Chris Burt, and other regular contributors.

Nearby

Air Quality

  Air Quality AQ Index Pollutant
Not available.

Snow Depth

Station Depth Elevation

Earthquake Activity

City Distance Mag. Time & Date
Minimum magnitude displayed is 2.5.

Coastal Water Temperatures

Place Temperature

Stations

Nearby Weather Stations

Station Location Temp. Windchill Dew Point Humidity Wind Precip. Elev Updated Type
                   

Watches & Warnings

There are currently no watches in effect.